Time;durP1;ratioP1;P1;durP2;ratioP2;P2;SDS_P1;SDS_P2;PMS_P1;PMS_P2;Temp;Humidity;BMP_temperature;BMP_pressure;BME280_temperature;BME280_humidity;BME280_pressure;Samples;Min_cycle;Max_cycle;Signal;HPM_P1;HPM_P2
2023/06/10 00:01:58;;;;;;;12.70;9.40;;;;;;;20.69;83.91;98272.41;5012439;28;20092;-45
2023/06/10 00:04:23;;;;;;;19.17;11.95;;;;;;;20.95;83.74;98265.03;5014109;28;20399;-45
2023/06/10 00:06:49;;;;;;;9.93;5.18;;;;;;;21.13;82.25;98270.78;5013971;28;20030;-45
2023/06/10 00:09:15;;;;;;;9.90;3.90;;;;;;;21.28;81.65;98275.19;4996349;28;20186;-45
2023/06/10 00:11:42;;;;;;;16.40;4.80;;;;;;;21.26;79.61;98278.13;5013235;28;20022;-45
2023/06/10 00:14:08;;;;;;;13.77;5.65;;;;;;;21.17;80.94;98281.66;5013880;28;20411;-45
2023/06/10 00:16:35;;;;;;;10.30;4.47;;;;;;;20.97;81.58;98282.63;5013780;28;20026;-45
2023/06/10 00:19:03;;;;;;;8.80;3.78;;;;;;;20.77;81.74;98281.69;5013698;28;20744;-44
2023/06/10 00:21:30;;;;;;;13.35;3.60;;;;;;;20.68;84.19;98289.47;4996010;28;20030;-45
2023/06/10 00:23:56;;;;;;;8.15;4.45;;;;;;;20.62;84.20;98281.78;5013680;28;20026;-45
2023/06/10 00:26:22;;;;;;;12.13;4.97;;;;;;;20.74;85.75;98283.06;5013564;28;20032;-45
2023/06/10 00:28:49;;;;;;;13.77;4.68;;;;;;;20.97;85.69;98277.28;5013539;28;20036;-45
2023/06/10 00:31:14;;;;;;;11.10;4.47;;;;;;;20.91;83.55;98274.66;5013422;28;20024;-45
2023/06/10 00:33:40;;;;;;;22.33;6.10;;;;;;;20.83;84.40;98285.94;5013507;28;20030;-45
2023/06/10 00:36:06;;;;;;;17.67;10.75;;;;;;;20.84;84.93;98289.38;4995749;28;20399;-45
2023/06/10 00:38:32;;;;;;;24.00;20.38;;;;;;;20.83;83.92;98269.13;5013407;28;20022;-45
2023/06/10 00:40:57;;;;;;;41.60;37.78;;;;;;;20.95;85.84;98267.69;5013395;28;20068;-45
2023/06/10 00:43:23;;;;;;;24.40;21.98;;;;;;;21.20;87.57;98270.44;5013244;28;20021;-45
2023/06/10 00:45:50;;;;;;;21.45;9.98;;;;;;;21.37;86.88;98267.34;4995621;28;20049;-45
2023/06/10 00:48:16;;;;;;;11.90;6.43;;;;;;;21.49;86.62;98273.13;4995724;28;20024;-45
2023/06/10 00:50:42;;;;;;;13.25;5.10;;;;;;;21.58;86.11;98274.13;5013150;28;20034;-45
2023/06/10 00:53:08;;;;;;;11.93;6.60;;;;;;;21.59;85.45;98278.41;4995578;28;20034;-45
2023/06/10 00:55:34;;;;;;;11.48;5.00;;;;;;;21.58;83.88;98279.47;4995756;28;20030;-45
2023/06/10 00:58:01;;;;;;;13.27;5.13;;;;;;;21.50;83.12;98269.41;5013380;28;20571;-44
2023/06/10 01:00:27;;;;;;;10.63;5.32;;;;;;;21.50;82.09;98264.06;5012915;28;20028;-45
2023/06/10 01:02:53;;;;;;;11.73;4.32;;;;;;;21.64;82.91;98262.31;5012664;28;20080;-45
2023/06/10 01:05:20;;;;;;;4.70;3.53;;;;;;;21.81;81.21;98267.22;4995223;28;20517;-45
2023/06/10 01:08:25;;;;;;;10.70;3.60;;;;;;;21.95;80.61;98261.97;5013098;28;20030;-44
2023/06/10 01:11:00;;;;;;;5.38;3.58;;;;;;;21.96;79.61;98257.44;4914118;29;20036;-45
2023/06/10 01:13:28;;;;;;;10.35;3.90;;;;;;;22.01;79.93;98268.84;4914126;29;20103;-45
2023/06/10 01:15:58;;;;;;;16.08;3.60;;;;;;;22.05;81.18;98264.50;4914127;29;20119;-45
2023/06/10 01:18:30;;;;;;;8.23;2.75;;;;;;;22.21;79.10;98262.44;4913997;29;20036;-45
2023/06/10 01:20:56;;;;;;;12.48;3.65;;;;;;;22.34;78.08;98250.31;4898281;29;20486;-45
2023/06/10 01:23:22;;;;;;;7.13;3.25;;;;;;;22.43;77.67;98255.78;4913666;29;20159;-45
2023/06/10 01:25:59;;;;;;;9.82;3.55;;;;;;;22.38;74.24;98250.53;4913944;29;20033;-45
2023/06/10 01:28:38;;;;;;;5.60;3.08;;;;;;;22.30;74.52;98254.63;4913941;29;20082;-45
2023/06/10 01:31:33;;;;;;;20.25;4.75;;;;;;;22.02;72.85;98257.09;4898074;29;20120;-45
2023/06/10 01:34:00;;;;;;;34.35;7.28;;;;;;;21.87;74.67;98257.25;4913833;29;20036;-45
2023/06/10 01:36:27;;;;;;;21.60;4.60;;;;;;;21.83;75.48;98259.72;4897963;29;20125;-45
2023/06/10 01:38:54;;;;;;;22.52;5.15;;;;;;;21.75;75.69;98263.00;4913679;29;20044;-45
2023/06/10 01:41:21;;;;;;;33.83;7.43;;;;;;;21.91;75.97;98263.63;4932349;28;20117;-45
2023/06/10 01:43:47;;;;;;;53.85;12.30;;;;;;;21.99;74.89;98264.88;4994581;28;20018;-45
2023/06/10 01:46:14;;;;;;;21.77;9.60;;;;;;;21.89;75.30;98258.59;4994557;28;20017;-45
2023/06/10 01:48:42;;;;;;;10.48;4.75;;;;;;;21.96;75.74;98260.91;4994679;28;20036;-45
2023/06/10 01:51:08;;;;;;;21.63;9.85;;;;;;;21.99;75.66;98256.84;5012188;28;20026;-45
2023/06/10 01:53:33;;;;;;;11.13;4.25;;;;;;;22.06;75.60;98260.78;4994528;28;20057;-45
2023/06/10 01:55:59;;;;;;;13.88;4.85;;;;;;;22.12;74.12;98253.50;4994498;28;20054;-45
2023/06/10 01:58:25;;;;;;;10.40;2.75;;;;;;;22.01;72.56;98263.50;5012165;28;20372;-45
2023/06/10 02:00:51;;;;;;;11.15;3.33;;;;;;;21.92;74.13;98257.22;4994462;28;20109;-45
2023/06/10 02:03:16;;;;;;;13.52;3.13;;;;;;;21.98;73.90;98263.28;5011898;28;20053;-45
2023/06/10 02:05:43;;;;;;;12.93;2.75;;;;;;;22.02;73.01;98267.78;4994401;28;20030;-45
2023/06/10 02:08:09;;;;;;;15.35;4.57;;;;;;;21.95;72.63;98272.66;4994331;28;20030;-45
2023/06/10 02:10:35;;;;;;;17.00;3.60;;;;;;;21.89;72.14;98268.44;4994320;28;20037;-45
2023/06/10 02:13:00;;;;;;;9.38;2.50;;;;;;;21.80;72.95;98276.31;4994318;28;20030;-45
2023/06/10 02:15:26;;;;;;;7.45;2.60;;;;;;;21.80;73.25;98270.97;4994224;28;20029;-45
2023/06/10 02:17:52;;;;;;;10.60;3.10;;;;;;;21.80;72.31;98275.50;4994291;28;20403;-45
2023/06/10 02:20:18;;;;;;;15.25;3.35;;;;;;;21.83;71.88;98267.72;4994264;28;20030;-45
2023/06/10 02:22:44;;;;;;;12.18;3.10;;;;;;;21.65;71.34;98273.78;5011831;28;20104;-45
2023/06/10 02:25:10;;;;;;;18.65;3.72;;;;;;;21.61;72.44;98267.41;4994161;28;20130;-45
2023/06/10 02:27:35;;;;;;;7.90;2.20;;;;;;;21.74;71.59;98266.75;5011826;28;20026;-45
2023/06/10 02:30:01;;;;;;;4.35;2.13;;;;;;;21.85;70.62;98267.44;5011764;28;20026;-45
2023/06/10 02:32:28;;;;;;;14.00;3.92;;;;;;;22.02;70.38;98270.44;5012060;28;20033;-45
2023/06/10 02:34:54;;;;;;;7.90;2.22;;;;;;;22.12;69.89;98267.66;5013245;28;20084;-45
2023/06/10 02:37:20;;;;;;;7.20;2.10;;;;;;;22.18;69.62;98260.38;5015603;28;20013;-45
2023/06/10 02:39:46;;;;;;;5.30;2.40;;;;;;;22.21;69.54;98267.78;5015648;28;20029;-45
2023/06/10 02:42:12;;;;;;;13.45;3.72;;;;;;;22.23;69.39;98273.66;4997899;28;20021;-45
2023/06/10 02:44:38;;;;;;;19.25;10.82;;;;;;;22.16;68.59;98272.44;5015545;28;20395;-45
2023/06/10 02:47:04;;;;;;;13.75;4.82;;;;;;;21.83;70.24;98266.91;4997883;28;20060;-45
2023/06/10 02:49:30;;;;;;;10.05;2.90;;;;;;;21.78;69.96;98275.78;5015448;28;20033;-45
2023/06/10 02:51:56;;;;;;;7.82;3.25;;;;;;;21.90;69.42;98272.72;5015667;28;20025;-45
2023/06/10 02:54:25;;;;;;;18.90;6.78;;;;;;;22.03;68.90;98265.88;5015356;28;20034;-45
2023/06/10 02:56:52;;;;;;;15.88;6.00;;;;;;;22.06;68.68;98268.78;4997682;28;20026;-45
2023/06/10 02:59:18;;;;;;;14.50;11.75;;;;;;;21.96;68.27;98260.09;5015332;28;20032;-45
2023/06/10 03:01:44;;;;;;;12.68;6.20;;;;;;;21.77;69.28;98270.72;4997311;28;20500;-45
2023/06/10 03:04:13;;;;;;;16.90;5.28;;;;;;;21.62;69.24;98269.81;5015482;28;20133;-45
2023/06/10 03:06:40;;;;;;;32.20;28.80;;;;;;;21.43;69.81;98267.06;5015427;28;20428;-45
2023/06/10 03:09:10;;;;;;;31.17;28.25;;;;;;;21.43;70.43;98267.06;5015025;28;20152;-45
2023/06/10 03:11:36;;;;;;;10.02;8.13;;;;;;;21.36;70.68;98266.56;4997404;28;20060;-45
2023/06/10 03:14:02;;;;;;;10.73;6.63;;;;;;;21.31;72.19;98266.63;5014985;28;20053;-45
2023/06/10 03:16:27;;;;;;;14.00;3.63;;;;;;;21.24;72.46;98269.59;4997393;28;20552;-45
2023/06/10 03:18:53;;;;;;;13.27;4.68;;;;;;;21.34;72.21;98271.38;5014908;28;20105;-45
2023/06/10 03:21:19;;;;;;;35.17;17.83;;;;;;;21.34;72.15;98264.16;4997236;28;20034;-45
2023/06/10 03:23:45;;;;;;;18.17;8.88;;;;;;;21.23;71.93;98261.88;4981030;28;20037;-45
2023/06/10 03:26:12;;;;;;;8.77;4.28;;;;;;;21.23;73.26;98260.00;4997112;28;20022;-45
2023/06/10 03:28:38;;;;;;;8.60;3.60;;;;;;;21.28;73.06;98259.94;5014823;28;20403;-45
2023/06/10 03:31:03;;;;;;;14.85;4.82;;;;;;;21.25;72.72;98268.53;4996982;28;20033;-45
2023/06/10 03:33:29;;;;;;;10.55;4.05;;;;;;;21.23;72.38;98262.69;4997022;28;20034;-45
2023/06/10 03:35:55;;;;;;;17.88;4.15;;;;;;;21.27;73.88;98262.88;5014803;28;20029;-45
2023/06/10 03:38:21;;;;;;;16.30;4.70;;;;;;;21.31;72.59;98263.94;4996976;28;20488;-45
2023/06/10 03:40:47;;;;;;;20.35;6.90;;;;;;;21.48;73.73;98268.88;4996899;28;20021;-45
2023/06/10 03:43:13;;;;;;;7.05;3.10;;;;;;;21.62;73.24;98277.81;5014659;28;20067;-45
2023/06/10 03:45:38;;;;;;;17.65;3.60;;;;;;;21.74;72.83;98278.22;5013624;28;20030;-45
2023/06/10 03:48:04;;;;;;;23.75;5.20;;;;;;;21.91;72.26;98271.63;5013846;28;20431;-45
2023/06/10 03:50:30;;;;;;;15.35;4.00;;;;;;;22.02;71.88;98283.81;5014217;28;20036;-45
2023/06/10 03:52:55;;;;;;;7.10;2.63;;;;;;;22.11;70.50;98275.94;4996797;28;20030;-45
2023/06/10 03:55:23;;;;;;;7.78;3.90;;;;;;;22.26;70.35;98275.78;5014253;28;20022;-46
2023/06/10 03:57:49;;;;;;;11.18;4.75;;;;;;;22.41;69.18;98274.78;5014106;28;20033;-45
2023/06/10 04:00:17;;;;;;;11.00;9.80;;;;;;;22.57;68.34;98271.91;4996513;28;20068;-46
2023/06/10 04:02:45;;;;;;;8.98;3.38;;;;;;;22.45;67.74;98283.03;5013707;28;20050;-46
2023/06/10 04:05:12;;;;;;;18.35;5.07;;;;;;;22.40;68.90;98285.78;5013973;28;20072;-45
2023/06/10 04:07:40;;;;;;;8.90;4.90;;;;;;;22.44;67.57;98284.13;5014066;28;20109;-45
2023/06/10 04:10:07;;;;;;;6.90;2.83;;;;;;;22.36;67.73;98282.09;5013917;28;20060;-45
2023/06/10 04:12:33;;;;;;;14.93;2.95;;;;;;;22.30;68.30;98284.03;5013911;28;20026;-45
2023/06/10 04:14:59;;;;;;;15.40;3.63;;;;;;;22.30;67.29;98289.38;4996335;28;20029;-45
2023/06/10 04:17:25;;;;;;;4.53;3.03;;;;;;;22.21;66.68;98283.84;5013745;28;20511;-45
2023/06/10 04:19:51;;;;;;;13.20;5.38;;;;;;;22.06;67.01;98286.72;5013852;28;20022;-45
2023/06/10 04:22:17;;;;;;;15.20;12.07;;;;;;;21.81;67.66;98293.94;5013595;28;20033;-45
2023/06/10 04:24:43;;;;;;;10.95;9.05;;;;;;;21.71;67.92;98294.84;5013969;28;20037;-45
2023/06/10 04:27:10;;;;;;;7.88;4.60;;;;;;;21.63;68.26;98300.78;5013602;28;20522;-45
2023/06/10 04:29:36;;;;;;;14.32;12.63;;;;;;;21.46;68.86;98297.75;5013631;28;20372;-45
2023/06/10 04:32:01;;;;;;;15.73;5.00;;;;;;;21.50;69.77;98298.78;5013800;28;20030;-45
2023/06/10 04:34:27;;;;;;;19.67;15.93;;;;;;;21.73;69.70;98300.69;4995950;28;20483;-45
2023/06/10 04:36:53;;;;;;;13.10;9.45;;;;;;;21.96;68.58;98302.88;4995816;28;20060;-45
2023/06/10 04:39:19;;;;;;;10.45;3.67;;;;;;;21.85;68.04;98299.50;5013480;28;20021;-45
2023/06/10 04:41:46;;;;;;;19.70;7.57;;;;;;;21.73;68.26;98298.03;5013319;28;20029;-45
2023/06/10 04:44:13;;;;;;;48.05;44.33;;;;;;;21.60;67.54;98306.69;4995945;28;20068;-45
2023/06/10 04:46:39;;;;;;;45.20;41.50;;;;;;;21.28;68.67;98299.19;5013302;28;20026;-45
2023/06/10 04:49:05;;;;;;;14.65;13.23;;;;;;;21.07;69.48;98298.56;5013257;28;20546;-45
2023/06/10 04:51:31;;;;;;;8.07;6.15;;;;;;;21.01;70.03;98305.03;4995528;28;20411;-45
2023/06/10 04:53:58;;;;;;;16.98;10.23;;;;;;;20.93;70.22;98303.75;4995768;28;20022;-45
2023/06/10 04:56:25;;;;;;;22.42;20.30;;;;;;;20.94;70.29;98311.44;5013131;28;20036;-45
2023/06/10 04:58:51;;;;;;;15.20;8.50;;;;;;;20.85;70.77;98309.66;4979165;28;20125;-45
2023/06/10 05:01:16;;;;;;;10.18;4.57;;;;;;;20.89;70.74;98306.16;5012988;28;20499;-45
2023/06/10 05:03:42;;;;;;;10.85;5.13;;;;;;;20.78;70.77;98319.84;5009014;28;20396;-45
2023/06/10 05:06:08;;;;;;;7.30;3.08;;;;;;;20.74;71.06;98308.91;5012955;28;20021;-45
2023/06/10 05:08:33;;;;;;;14.13;4.50;;;;;;;20.77;71.24;98311.03;5011595;28;20026;-45
2023/06/10 05:10:59;;;;;;;11.43;4.07;;;;;;;20.79;71.23;98311.56;5012924;28;20045;-46
2023/06/10 05:13:25;;;;;;;31.13;27.98;;;;;;;20.80;71.57;98318.47;5011565;28;20448;-45
2023/06/10 05:15:50;;;;;;;20.45;13.52;;;;;;;20.95;71.12;98306.94;5011439;28;20526;-45
2023/06/10 05:18:16;;;;;;;11.35;5.80;;;;;;;21.07;70.76;98311.91;5011488;28;20041;-45
2023/06/10 05:20:42;;;;;;;10.45;3.03;;;;;;;21.07;70.42;98314.59;5012633;28;20026;-45
2023/06/10 05:23:08;;;;;;;16.42;8.13;;;;;;;21.15;70.11;98314.00;5012590;28;20083;-45
2023/06/10 05:25:34;;;;;;;11.35;3.92;;;;;;;21.24;70.36;98300.84;5012601;28;20044;-45
2023/06/10 05:28:00;;;;;;;6.60;2.63;;;;;;;21.58;69.80;98300.81;5012575;28;20022;-45
2023/06/10 05:30:26;;;;;;;8.38;3.50;;;;;;;21.83;68.60;98307.00;5012544;28;20507;-45
2023/06/10 05:32:52;;;;;;;7.90;4.00;;;;;;;22.04;67.87;98307.56;5012525;28;20087;-45
2023/06/10 05:35:18;;;;;;;14.02;3.60;;;;;;;22.31;66.72;98307.00;5012495;28;20048;-46
2023/06/10 05:37:44;;;;;;;11.27;3.42;;;;;;;22.46;66.14;98301.47;5011410;28;20448;-45
2023/06/10 05:40:10;;;;;;;6.50;4.25;;;;;;;22.63;65.57;98295.63;5011152;28;20049;-45
2023/06/10 05:42:36;;;;;;;10.80;3.65;;;;;;;22.53;65.98;98299.22;5012598;28;20030;-46
2023/06/10 05:45:02;;;;;;;13.27;7.18;;;;;;;23.51;63.49;98297.78;5012244;28;20181;-45
2023/06/10 05:47:29;;;;;;;7.55;4.15;;;;;;;25.37;57.83;98295.53;5011003;28;20034;-45
2023/06/10 05:49:54;;;;;;;6.40;3.10;;;;;;;27.28;51.23;98287.91;5010947;28;20022;-45
2023/06/10 05:52:20;;;;;;;9.63;3.15;;;;;;;28.32;46.86;98288.63;5010975;28;20095;-46
2023/06/10 05:54:46;;;;;;;6.35;2.72;;;;;;;28.92;46.84;98288.53;5012172;28;20042;-46
2023/06/10 05:57:12;;;;;;;8.68;2.80;;;;;;;30.23;43.35;98285.94;5012161;28;20072;-46
2023/06/10 05:59:37;;;;;;;13.48;3.63;;;;;;;30.98;40.85;98283.88;5012376;28;20022;-46
2023/06/10 06:02:03;;;;;;;7.88;2.80;;;;;;;31.35;38.84;98280.97;5010730;28;20411;-46
2023/06/10 06:04:29;;;;;;;19.40;4.32;;;;;;;31.14;39.22;98279.28;5010912;28;20515;-46
2023/06/10 06:06:54;;;;;;;6.18;2.95;;;;;;;31.40;39.80;98278.78;5012077;28;20483;-46
2023/06/10 06:09:20;;;;;;;10.98;2.80;;;;;;;31.92;37.58;98287.84;5009962;28;20034;-46
2023/06/10 06:11:46;;;;;;;8.60;2.97;;;;;;;32.32;37.09;98277.91;5012018;28;20473;-46
2023/06/10 06:14:11;;;;;;;23.30;4.95;;;;;;;31.99;37.07;98289.94;5012025;28;20041;-46
2023/06/10 06:16:38;;;;;;;8.15;3.20;;;;;;;31.53;38.99;98286.88;5011990;28;20396;-46
2023/06/10 06:19:04;;;;;;;5.00;3.03;;;;;;;31.43;38.03;98294.38;5011985;28;20030;-46
2023/06/10 06:21:30;;;;;;;13.32;3.25;;;;;;;30.52;39.95;98296.88;5012043;28;20956;-46
2023/06/10 06:23:55;;;;;;;7.20;3.05;;;;;;;29.35;41.78;98295.44;5010503;28;20030;-46
2023/06/10 06:26:21;;;;;;;8.32;3.22;;;;;;;27.80;45.30;98305.03;5011890;28;20021;-46
2023/06/10 06:28:47;;;;;;;7.43;3.20;;;;;;;27.07;47.98;98308.53;5010556;28;20033;-46
2023/06/10 06:31:12;;;;;;;6.85;2.78;;;;;;;26.95;49.17;98309.16;5011804;28;20163;-46
2023/06/10 06:33:38;;;;;;;5.78;3.47;;;;;;;27.21;48.19;98303.75;5011818;28;20038;-46
2023/06/10 06:36:04;;;;;;;10.85;2.97;;;;;;;27.57;47.97;98307.97;5010498;28;20022;-46
2023/06/10 06:38:29;;;;;;;11.00;3.22;;;;;;;28.02;46.38;98306.72;5010499;28;20038;-46
2023/06/10 06:40:57;;;;;;;8.10;3.50;;;;;;;28.34;46.06;98299.88;5011674;28;20133;-46
2023/06/10 06:43:23;;;;;;;6.70;3.00;;;;;;;28.42;45.08;98304.44;5011918;28;20076;-46
2023/06/10 06:45:49;;;;;;;8.05;3.03;;;;;;;28.34;45.01;98305.28;5011996;28;20076;-46
2023/06/10 06:48:14;;;;;;;16.05;3.25;;;;;;;28.26;45.69;98306.13;5011669;28;20431;-46
2023/06/10 06:50:41;;;;;;;7.22;2.50;;;;;;;28.64;44.00;98297.16;5011724;28;20025;-46
2023/06/10 06:53:07;;;;;;;12.90;3.05;;;;;;;29.23;43.28;98302.38;5011645;28;20076;-46
2023/06/10 06:55:33;;;;;;;8.73;2.75;;;;;;;29.92;41.23;98300.06;5010398;28;20029;-46
2023/06/10 06:58:02;;;;;;;3.53;2.30;;;;;;;30.30;40.39;98301.63;5010320;28;20034;-46
2023/06/10 07:00:28;;;;;;;5.22;2.50;;;;;;;30.90;39.96;98306.50;5011597;28;20454;-46
2023/06/10 07:02:53;;;;;;;8.68;2.50;;;;;;;32.03;36.68;98305.19;5009953;28;20046;-46
2023/06/10 07:05:19;;;;;;;3.92;2.10;;;;;;;33.22;35.25;98292.19;5010200;28;20459;-46
2023/06/10 07:07:45;;;;;;;5.75;2.28;;;;;;;33.05;34.68;98289.88;5011754;28;20034;-46
2023/06/10 07:10:11;;;;;;;6.85;2.35;;;;;;;33.46;34.05;98292.97;5010169;28;20033;-46
2023/06/10 07:12:37;;;;;;;4.88;3.03;;;;;;;34.07;32.97;98293.19;5010273;28;20037;-46
2023/06/10 07:15:03;;;;;;;7.97;3.30;;;;;;;34.47;31.82;98300.00;5011458;28;20018;-46
2023/06/10 07:17:28;;;;;;;6.63;2.63;;;;;;;35.09;31.29;98297.63;5011732;28;20029;-46
2023/06/10 07:19:57;;;;;;;6.45;2.38;;;;;;;35.38;30.61;98293.28;5010139;28;20364;-46
2023/06/10 07:22:22;;;;;;;8.38;2.60;;;;;;;35.36;30.63;98295.63;5014655;28;20037;-46
2023/06/10 07:24:48;;;;;;;7.68;2.40;;;;;;;35.35;30.18;98301.44;5013600;28;20030;-45
2023/06/10 07:27:14;;;;;;;5.47;2.28;;;;;;;35.35;30.42;98296.75;5014766;28;20029;-46
2023/06/10 07:29:39;;;;;;;9.30;2.42;;;;;;;35.69;30.12;98295.91;5013479;28;20088;-46
2023/06/10 07:32:05;;;;;;;6.03;2.25;;;;;;;36.14;29.89;98286.50;5013458;28;20029;-46
2023/06/10 07:34:31;;;;;;;3.60;2.03;;;;;;;36.64;29.06;98296.16;5014703;28;20132;-46
2023/06/10 07:36:57;;;;;;;9.93;3.08;;;;;;;36.46;29.49;98296.81;5014701;28;20358;-46
2023/06/10 07:39:22;;;;;;;6.35;1.80;;;;;;;36.65;29.37;98289.53;5014706;28;20105;-46
2023/06/10 07:41:49;;;;;;;5.93;2.03;;;;;;;36.75;28.30;98292.31;5013196;28;20507;-46
2023/06/10 07:44:15;;;;;;;6.47;1.95;;;;;;;35.91;29.75;98286.72;5014571;28;20014;-46
2023/06/10 07:46:41;;;;;;;7.13;2.30;;;;;;;34.71;31.02;98294.13;5014792;28;20037;-46
2023/06/10 07:49:06;;;;;;;10.75;2.40;;;;;;;33.25;32.74;98293.38;5013146;28;20053;-46
2023/06/10 07:51:32;;;;;;;6.20;2.38;;;;;;;31.99;34.94;98293.41;5013141;28;20100;-46
2023/06/10 07:53:58;;;;;;;9.63;2.80;;;;;;;31.45;36.44;98304.91;5013037;28;20411;-46
2023/06/10 07:56:25;;;;;;;8.80;2.65;;;;;;;32.51;34.97;98296.16;5013020;28;20112;-46
2023/06/10 07:58:50;;;;;;;4.60;1.90;;;;;;;33.55;33.64;98293.53;5014488;28;20037;-46
2023/06/10 08:01:16;;;;;;;7.32;2.70;;;;;;;34.13;32.82;98288.97;5014270;28;20419;-46
2023/06/10 08:03:43;;;;;;;8.57;2.75;;;;;;;33.92;32.59;98290.25;5013914;28;20053;-46
2023/06/10 08:06:11;;;;;;;9.18;3.00;;;;;;;33.48;32.98;98290.66;5013967;28;20026;-46
2023/06/10 08:08:41;;;;;;;9.13;3.20;;;;;;;33.21;32.87;98285.16;5013817;28;20025;-46
2023/06/10 08:11:08;;;;;;;8.38;2.50;;;;;;;33.15;33.35;98274.94;5014019;28;20030;-46
2023/06/10 08:13:33;;;;;;;9.82;3.35;;;;;;;33.14;33.57;98289.69;5013919;28;20022;-46
2023/06/10 08:15:59;;;;;;;6.05;2.40;;;;;;;32.97;33.60;98285.47;5013917;28;20040;-46
2023/06/10 08:18:24;;;;;;;12.38;3.33;;;;;;;32.61;34.40;98288.25;5013893;28;20030;-46
2023/06/10 08:20:50;;;;;;;11.02;3.05;;;;;;;32.52;35.01;98289.56;4996485;28;20080;-46
2023/06/10 08:23:16;;;;;;;10.93;2.20;;;;;;;32.45;34.68;98287.47;4996072;28;20057;-46
2023/06/10 08:25:41;;;;;;;6.03;2.05;;;;;;;33.67;33.66;98286.38;5013728;28;20416;-46
2023/06/10 08:28:07;;;;;;;6.72;1.85;;;;;;;33.97;32.58;98279.06;4979933;28;20091;-46
2023/06/10 08:30:33;;;;;;;5.18;1.92;;;;;;;33.56;32.94;98286.13;4995998;28;20125;-46
2023/06/10 08:32:59;;;;;;;9.75;2.40;;;;;;;32.96;32.70;98281.16;5012837;28;20560;-46
2023/06/10 08:35:25;;;;;;;6.95;2.15;;;;;;;32.62;33.71;98284.41;5013476;28;20018;-46
2023/06/10 08:37:50;;;;;;;11.48;2.15;;;;;;;32.50;34.19;98286.41;4995845;28;20116;-46
2023/06/10 08:40:16;;;;;;;4.43;1.90;;;;;;;32.33;33.77;98277.53;5013431;28;20053;-46
2023/06/10 08:42:45;;;;;;;5.82;1.80;;;;;;;31.94;34.38;98279.34;4995590;28;20036;-46
2023/06/10 08:45:18;;;;;;;4.13;1.45;;;;;;;33.27;33.13;98279.44;5013338;28;20033;-46
2023/06/10 08:47:46;;;;;;;9.30;2.60;;;;;;;33.66;32.34;98282.84;5013366;28;20026;-46
2023/06/10 08:50:12;;;;;;;8.48;2.25;;;;;;;33.19;32.45;98284.72;5013506;28;20030;-46
2023/06/10 08:52:42;;;;;;;11.80;2.15;;;;;;;32.83;33.27;98285.97;5013423;28;20030;-46
2023/06/10 08:55:19;;;;;;;34.28;6.70;;;;;;;32.34;33.72;98284.56;5013206;28;20030;-46
2023/06/10 08:57:45;;;;;;;63.20;13.23;;;;;;;32.12;34.53;98285.22;5013107;28;20040;-46
2023/06/10 09:00:13;;;;;;;21.92;3.53;;;;;;;32.12;34.61;98287.94;5013084;28;20014;-46
2023/06/10 09:02:39;;;;;;;11.18;2.30;;;;;;;32.15;34.68;98282.56;5012865;28;20104;-46
2023/06/10 09:05:06;;;;;;;15.40;2.40;;;;;;;32.35;34.59;98288.81;5013194;28;20518;-46
2023/06/10 09:07:34;;;;;;;5.30;2.00;;;;;;;32.67;34.12;98288.75;4979076;28;20313;-46
2023/06/10 09:10:03;;;;;;;13.57;2.70;;;;;;;32.95;33.34;98293.19;5012851;28;20032;-46
2023/06/10 09:12:29;;;;;;;12.18;2.10;;;;;;;33.48;33.52;98279.78;5012847;28;20021;-46
2023/06/10 09:14:55;;;;;;;6.10;2.17;;;;;;;35.29;31.16;98278.38;5012821;28;20037;-46
2023/06/10 09:17:21;;;;;;;7.10;2.05;;;;;;;38.31;26.93;98272.84;5012738;28;20080;-46
2023/06/10 09:19:48;;;;;;;6.85;2.05;;;;;;;40.37;23.55;98275.00;4995102;28;20026;-46
2023/06/10 09:22:13;;;;;;;10.32;2.90;;;;;;;41.55;21.67;98273.38;5012616;28;20025;-47
2023/06/10 09:24:40;;;;;;;8.93;3.35;;;;;;;42.11;21.21;98262.56;5012652;28;20052;-46
2023/06/10 09:27:08;;;;;;;6.85;1.85;;;;;;;43.44;20.91;98262.50;5012587;28;20563;-47
2023/06/10 09:29:54;;;;;;;10.30;2.28;;;;;;;45.17;19.30;98261.25;4995044;28;20108;-49
2023/06/10 09:32:20;;;;;;;7.40;2.13;;;;;;;45.37;18.59;98263.78;4994900;28;20030;-49
2023/06/10 09:34:47;;;;;;;11.77;1.92;;;;;;;43.81;19.33;98262.38;5012488;28;20025;-49
2023/06/10 09:37:19;;;;;;;8.18;1.83;;;;;;;42.33;20.79;98269.66;5012430;28;20034;-49
2023/06/10 09:39:45;;;;;;;4.57;1.77;;;;;;;41.14;21.92;98266.13;4994811;28;20029;-49
2023/06/10 09:42:18;;;;;;;6.00;2.15;;;;;;;40.06;22.72;98264.69;4994752;28;20032;-48
2023/06/10 09:44:51;;;;;;;5.70;1.63;;;;;;;39.07;23.73;98265.09;5012529;28;20376;-48
2023/06/10 09:47:22;;;;;;;11.98;2.85;;;;;;;38.19;24.58;98262.31;4994673;28;20096;-49
2023/06/10 09:49:54;;;;;;;7.47;1.83;;;;;;;37.76;25.91;98270.59;5012287;28;20049;-48
2023/06/10 09:52:24;;;;;;;4.65;1.92;;;;;;;37.11;26.60;98267.81;5012258;28;20083;-46
2023/06/10 09:54:58;;;;;;;4.30;1.60;;;;;;;36.06;27.63;98273.16;4994499;28;20021;-46
2023/06/10 09:57:24;;;;;;;18.35;2.88;;;;;;;34.95;29.05;98281.94;4994493;28;20112;-46
2023/06/10 09:59:53;;;;;;;8.20;2.50;;;;;;;34.10;30.43;98281.56;5012392;28;20480;-46
2023/06/10 10:02:19;;;;;;;14.95;3.42;;;;;;;33.40;31.49;98289.78;5011915;28;20120;-46
2023/06/10 10:04:45;;;;;;;8.35;2.65;;;;;;;32.75;33.07;98276.88;4994575;28;20121;-46
2023/06/10 10:07:11;;;;;;;8.48;2.95;;;;;;;32.15;34.69;98285.28;5012074;28;20026;-46
2023/06/10 10:09:38;;;;;;;5.68;2.63;;;;;;;31.78;35.14;98291.00;5012260;28;20368;-46
2023/06/10 10:12:08;;;;;;;8.13;2.83;;;;;;;31.55;36.09;98288.13;4994266;28;20037;-46
2023/06/10 10:14:35;;;;;;;8.70;3.13;;;;;;;31.41;36.72;98293.94;5012035;28;20044;-46
2023/06/10 10:17:04;;;;;;;19.48;3.28;;;;;;;31.15;36.69;98290.91;5012206;28;20112;-46
2023/06/10 10:19:36;;;;;;;8.05;2.85;;;;;;;30.93;36.85;98292.25;4994329;28;20018;-46
2023/06/10 10:22:11;;;;;;;11.65;2.83;;;;;;;30.75;37.35;98287.09;4994183;28;20040;-46
2023/06/10 10:24:42;;;;;;;8.45;2.55;;;;;;;30.79;37.67;98287.22;5011977;28;20030;-46
2023/06/10 10:27:33;;;;;;;6.40;2.65;;;;;;;30.91;37.48;98284.47;4994293;28;20042;-46
2023/06/10 10:30:01;;;;;;;8.35;2.58;;;;;;;31.11;37.28;98290.84;5011117;28;20068;-46
2023/06/10 10:32:55;;;;;;;7.30;2.67;;;;;;;31.33;36.88;98288.66;5012023;28;20456;-46
2023/06/10 10:35:23;;;;;;;8.30;2.53;;;;;;;31.35;36.97;98283.69;4994277;28;20036;-46
2023/06/10 10:37:52;;;;;;;12.93;2.80;;;;;;;31.46;36.53;98279.34;5011767;28;20053;-46
2023/06/10 10:40:19;;;;;;;11.02;2.30;;;;;;;31.64;36.84;98279.81;4994057;28;20029;-46
2023/06/10 10:42:45;;;;;;;7.18;2.33;;;;;;;31.75;36.55;98280.06;5011691;28;20022;-46
2023/06/10 10:45:11;;;;;;;8.35;3.50;;;;;;;31.96;36.32;98277.84;4994077;28;20033;-46
2023/06/10 10:47:39;;;;;;;11.00;3.58;;;;;;;32.24;36.03;98276.97;5011682;28;20419;-46
2023/06/10 10:50:16;;;;;;;10.93;3.63;;;;;;;32.52;35.63;98274.06;5011554;28;20025;-46
2023/06/10 10:53:04;;;;;;;6.30;2.75;;;;;;;32.53;35.83;98277.56;4978137;28;20117;-46
2023/06/10 10:55:30;;;;;;;7.78;2.80;;;;;;;32.90;35.28;98267.09;4994686;28;20022;-46
2023/06/10 10:58:15;;;;;;;11.10;3.55;;;;;;;32.86;34.78;98271.66;5015379;28;20021;-46
2023/06/10 11:00:45;;;;;;;8.68;3.03;;;;;;;32.53;35.57;98267.47;4998185;28;20037;-46
2023/06/10 11:03:18;;;;;;;8.95;2.40;;;;;;;32.02;36.14;98268.31;5014947;28;20474;-46
2023/06/10 11:05:49;;;;;;;8.03;2.90;;;;;;;32.54;35.51;98273.69;4998352;28;20068;-46
2023/06/10 11:08:36;;;;;;;7.18;2.63;;;;;;;33.02;34.61;98264.22;5015209;28;20798;-46
2023/06/10 11:11:18;;;;;;;8.32;3.08;;;;;;;33.33;33.13;98261.66;5015025;28;20030;-46
2023/06/10 11:14:08;;;;;;;10.63;3.33;;;;;;;32.50;35.36;98268.19;5015118;28;20033;-46
2023/06/10 11:16:41;;;;;;;7.15;2.60;;;;;;;32.76;34.65;98258.63;5014951;28;20038;-46
2023/06/10 11:19:07;;;;;;;9.43;2.63;;;;;;;33.07;34.22;98265.06;4981334;28;20026;-46
2023/06/10 11:21:57;;;;;;;11.20;3.30;;;;;;;33.34;33.68;98258.56;4997267;28;20080;-46
2023/06/10 11:24:23;;;;;;;7.57;2.58;;;;;;;33.38;34.22;98261.34;5014920;28;20065;-46
2023/06/10 11:26:48;;;;;;;8.18;2.38;;;;;;;33.82;33.11;98256.25;4997199;28;20080;-46
2023/06/10 11:29:15;;;;;;;6.07;2.30;;;;;;;34.31;32.76;98254.66;5014799;28;20076;-46
2023/06/10 11:31:42;;;;;;;9.40;2.15;;;;;;;34.69;31.73;98255.53;5014690;28;20024;-46